createdAt,value
2024-03-04T01:02:09.648Z,100010.97
2024-03-04T01:04:40.046Z,100015.75
2024-03-04T01:07:10.881Z,100011.72
2024-03-04T01:09:44.141Z,100022.31
2024-03-04T01:12:14.724Z,100028.59
2024-03-04T01:14:47.451Z,100030.91
2024-03-04T01:17:19.364Z,100022.66
2024-03-04T01:19:50.549Z,100018.38
2024-03-04T01:22:21.289Z,100030.91
2024-03-04T01:24:52.193Z,100033.31
2024-03-04T01:27:23.855Z,100029.13
2024-03-04T01:29:54.212Z,100034.19
2024-03-04T01:32:26.831Z,100032.63
2024-03-04T01:34:57.394Z,100027.06
2024-03-04T01:37:27.577Z,100027.69
2024-03-04T01:40:00.717Z,100032.47
2024-03-04T01:48:54.119Z,100037.13
2024-03-04T01:58:51.117Z,100039.50
2024-03-04T02:03:06.175Z,100055.00
2024-03-04T02:06:24.680Z,100045.59
2024-03-04T02:12:14.634Z,100048.03
2024-03-04T02:13:05.461Z,100052.41
2024-03-04T02:19:03.414Z,100067.53
2024-03-04T02:32:51.908Z,100072.25
2024-03-04T02:35:52.176Z,100076.88
2024-03-04T02:41:43.707Z,100074.44
2024-03-04T02:45:07.223Z,100087.13
2024-03-04T02:56:19.420Z,100088.25
2024-03-04T02:58:56.936Z,100090.16
2024-03-04T03:01:46.266Z,100093.50
2024-03-04T03:07:45.412Z,100090.75
2024-03-04T03:07:58.709Z,100089.78
2024-03-04T03:10:15.060Z,100080.97
2024-03-04T03:16:04.855Z,100087.25
2024-03-04T03:19:04.074Z,100086.03
2024-03-04T03:21:37.416Z,100093.22
2024-03-04T03:24:29.636Z,100091.38
2024-03-04T03:27:27.496Z,100102.75
2024-03-04T03:29:59.589Z,100110.19
2024-03-04T03:33:19.323Z,100100.88
2024-03-04T03:36:35.511Z,100105.38
2024-03-04T03:39:29.799Z,100112.44
2024-03-04T03:42:34.591Z,100100.28
2024-03-04T03:48:22.862Z,100104.91
2024-03-04T03:59:13.974Z,100102.91
2024-03-04T04:01:45.682Z,100105.22
2024-03-04T04:09:38.601Z,100114.63
2024-03-04T04:13:01.012Z,100120.59
2024-03-04T04:20:33.604Z,100129.03
2024-03-04T04:27:24.112Z,100136.09
2024-03-04T04:30:44.253Z,100141.59
2024-03-04T04:33:35.445Z,100145.31
2024-03-04T04:36:54.243Z,100150.34
2024-03-04T04:39:30.809Z,100155.69
2024-03-04T04:42:21.023Z,100160.69
2024-03-04T04:45:27.004Z,100156.72
2024-03-04T04:48:24.031Z,100156.91
2024-03-04T04:50:58.868Z,100163.13
2024-03-04T04:53:43.523Z,100169.06
2024-03-04T04:57:11.593Z,100170.47
2024-03-04T04:59:45.058Z,100181.75
2024-03-04T05:03:02.021Z,100173.59
2024-03-04T05:06:01.466Z,100186.25
2024-03-04T05:09:45.591Z,100182.97
2024-03-04T05:12:19.200Z,100182.94
2024-03-04T05:15:37.718Z,100196.13
2024-03-04T05:20:07.969Z,100193.16
2024-03-04T05:22:41.205Z,100199.38
2024-03-04T05:28:36.919Z,100201.97
2024-03-04T05:31:32.162Z,100203.13
2024-03-04T05:37:40.732Z,100218.25
2024-03-04T05:40:43.003Z,100225.25
2024-03-04T05:44:08.463Z,100223.22
2024-03-04T05:47:31.423Z,100227.34
2024-03-04T05:53:11.997Z,100226.22
2024-03-04T05:53:13.049Z,100223.94
2024-03-04T06:02:08.018Z,100233.16
2024-03-04T06:04:44.673Z,100232.69
2024-03-04T06:07:36.825Z,100227.34
2024-03-04T06:10:32.463Z,100231.88
2024-03-04T06:13:26.286Z,100228.13
2024-03-04T06:15:58.644Z,100224.34
2024-03-04T06:28:06.225Z,100231.81
2024-03-04T06:30:42.501Z,100226.56
2024-03-04T06:36:11.628Z,100228.81
2024-03-04T06:39:45.476Z,100239.56
2024-03-04T06:42:18.474Z,100237.16
2024-03-04T06:45:21.153Z,100243.09
2024-03-04T06:47:52.105Z,100238.91
2024-03-04T06:53:43.543Z,100235.94
2024-03-04T06:56:15.983Z,100233.41
2024-03-04T06:59:14.352Z,100237.59
2024-03-04T07:01:43.922Z,100239.31
2024-03-04T07:04:31.532Z,100244.09
2024-03-04T07:08:01.138Z,100239.50
2024-03-04T07:10:53.413Z,100240.75
2024-03-04T07:13:29.144Z,100246.19
2024-03-04T07:16:16.769Z,100249.22
2024-03-04T07:18:49.504Z,100254.69
2024-03-04T07:21:24.639Z,100251.00
2024-03-04T07:24:51.270Z,100257.09
2024-03-04T07:31:06.217Z,100264.38
2024-03-04T07:33:58.839Z,100264.81
2024-03-04T07:36:49.226Z,100267.63
2024-03-04T07:43:14.573Z,100272.22
2024-03-04T07:46:05.405Z,100275.47
2024-03-04T07:49:32.216Z,100278.38
2024-03-04T07:52:30.318Z,100283.50
2024-03-04T07:55:43.123Z,100273.59
2024-03-04T07:58:17.258Z,100285.94
2024-03-04T08:00:49.384Z,100279.06
2024-03-04T08:03:22.167Z,100277.25
2024-03-04T08:05:52.389Z,100284.56
2024-03-04T08:12:13.465Z,100292.50
2024-03-04T08:15:11.874Z,100295.69
2024-03-04T08:17:57.683Z,100296.44
2024-03-04T08:20:34.258Z,100296.91
2024-03-04T08:23:26.811Z,100298.50
2024-03-04T08:29:11.473Z,100295.53
2024-03-04T08:29:19.966Z,100298.00
2024-03-04T08:31:51.224Z,100300.09
2024-03-04T08:34:46.347Z,100297.38
2024-03-04T08:41:23.430Z,100313.19
2024-03-04T08:50:46.781Z,100311.72
2024-03-04T08:53:39.302Z,100319.81
2024-03-04T08:56:14.863Z,100322.34
2024-03-04T08:59:08.396Z,100319.59
2024-03-04T09:02:00.082Z,100326.09
2024-03-04T09:12:00.405Z,100328.72
2024-03-04T09:20:56.987Z,100329.16
2024-03-04T09:27:37.258Z,100332.69
2024-03-04T09:30:58.267Z,100334.16
2024-03-04T09:33:30.786Z,100346.84
2024-03-04T09:47:24.068Z,100351.28
2024-03-04T09:49:21.257Z,100344.44
2024-03-04T09:54:49.279Z,100358.34
2024-03-04T10:00:44.104Z,100362.53
2024-03-04T10:03:40.567Z,100363.53
2024-03-04T10:06:37.599Z,100361.22
2024-03-04T10:09:26.093Z,100363.41
2024-03-04T10:12:28.597Z,100360.06
2024-03-04T10:22:07.562Z,100367.22
2024-03-04T10:24:59.432Z,100371.91
2024-03-04T10:27:39.867Z,100366.06
2024-03-04T10:30:54.465Z,100366.28
2024-03-04T10:33:27.303Z,100371.81
2024-03-04T10:36:21.204Z,100368.13
2024-03-04T10:40:04.409Z,100370.41
2024-03-04T10:42:41.401Z,100368.13
2024-03-04T10:45:31.495Z,100374.28
2024-03-04T10:48:31.933Z,100379.31
2024-03-04T10:51:31.882Z,100360.50
2024-03-04T10:58:14.321Z,100369.38
2024-03-04T11:01:07.881Z,100370.88
2024-03-04T11:04:06.166Z,100370.84
2024-03-04T11:07:21.673Z,100377.03
2024-03-04T11:10:00.236Z,100379.88
2024-03-04T11:13:34.574Z,100386.56
2024-03-04T11:20:27.957Z,100384.19
2024-03-04T11:23:24.355Z,100395.50
2024-03-04T11:26:11.870Z,100394.34
2024-03-04T11:29:35.351Z,100390.44
2024-03-04T11:35:25.370Z,100386.56
2024-03-04T11:38:29.012Z,100395.75
2024-03-04T11:41:51.951Z,100404.88
2024-03-04T11:48:27.936Z,100403.97
2024-03-04T11:51:03.279Z,100403.06
2024-03-04T11:52:21.591Z,100403.72
2024-03-04T11:56:34.251Z,100409.47
2024-03-04T11:59:24.816Z,100416.97
2024-03-04T12:02:23.152Z,100412.28
2024-03-04T12:04:57.284Z,100418.91
2024-03-04T12:09:44.777Z,100414.75
2024-03-04T12:10:40.881Z,100421.13
2024-03-04T12:13:10.910Z,100420.91
2024-03-04T12:15:44.005Z,100428.19
2024-03-04T12:18:21.952Z,100429.81
2024-03-04T12:22:06.563Z,100435.28
2024-03-04T12:28:20.440Z,100442.56
2024-03-04T12:30:49.816Z,100439.75
2024-03-04T12:36:44.088Z,100444.88
2024-03-04T12:39:37.589Z,100451.28
2024-03-04T12:42:08.988Z,100448.31
2024-03-04T12:44:43.314Z,100449.00
2024-03-04T12:47:33.314Z,100454.22
2024-03-04T12:50:53.882Z,100456.41
2024-03-04T12:53:31.671Z,100462.69
2024-03-04T12:56:29.925Z,100455.38
2024-03-04T12:59:27.891Z,100469.31
2024-03-04T13:02:38.662Z,100466.56
2024-03-04T13:05:41.020Z,100473.19
2024-03-04T13:09:23.351Z,100472.16
2024-03-04T13:12:03.022Z,100470.22
2024-03-04T13:14:56.893Z,100478.69
2024-03-04T13:18:07.922Z,100471.13
2024-03-04T13:21:08.409Z,100487.56
2024-03-04T13:24:08.388Z,100486.91
2024-03-04T13:27:01.390Z,100482.78
2024-03-04T13:29:34.008Z,100488.50
2024-03-04T13:32:07.300Z,100490.53
2024-03-04T13:35:02.035Z,100504.13
2024-03-04T13:41:10.767Z,100507.47
2024-03-04T13:43:49.544Z,100512.25
2024-03-04T13:46:22.816Z,100509.28
2024-03-04T13:49:08.333Z,100501.84
2024-03-04T13:51:52.800Z,100508.38
2024-03-04T13:55:51.878Z,100512.69
2024-03-04T14:00:33.439Z,100516.72
2024-03-04T14:03:11.104Z,100514.56
2024-03-04T14:06:07.825Z,100520.94
2024-03-04T14:09:02.540Z,100535.09
2024-03-04T14:12:17.697Z,100535.88
2024-03-04T14:15:43.485Z,100537.94
2024-03-04T14:18:13.040Z,100540.56
2024-03-04T14:23:41.496Z,100547.66
2024-03-04T14:29:27.791Z,100560.69
2024-03-04T14:32:01.073Z,100559.09
2024-03-04T14:34:33.955Z,100565.50
2024-03-04T14:37:33.721Z,100565.94
2024-03-04T14:43:52.788Z,100570.97
2024-03-04T14:46:46.968Z,100575.31
2024-03-04T14:53:04.147Z,100584.91
2024-03-04T14:53:34.423Z,100583.06
2024-03-04T15:02:35.717Z,100599.50
2024-03-04T15:05:54.370Z,100603.16
2024-03-04T15:08:29.936Z,100605.50
2024-03-04T15:11:27.179Z,100611.16
2024-03-04T15:14:02.206Z,100625.22
2024-03-04T15:21:34.076Z,100625.44
2024-03-04T15:33:19.068Z,100642.25
2024-03-04T15:36:20.257Z,100643.72
2024-03-04T15:42:06.014Z,100644.31
2024-03-04T15:47:25.460Z,100654.09
2024-03-04T15:50:58.010Z,100652.75
2024-03-04T15:54:18.047Z,100660.28
2024-03-04T15:57:09.872Z,100652.97
2024-03-04T16:00:01.696Z,100668.75
2024-03-04T16:07:10.200Z,100684.50
2024-03-04T16:31:52.551Z,100712.66
2024-03-04T16:32:19.647Z,100706.47
2024-03-04T16:51:44.421Z,100730.97
2024-03-04T17:43:54.759Z,100787.34
2024-03-04T17:46:38.902Z,100787.28
2024-03-04T17:49:11.388Z,100787.84
2024-03-04T17:51:58.726Z,100793.75
2024-03-04T17:54:27.619Z,100786.03
2024-03-04T17:57:00.673Z,100798.78
2024-03-04T17:59:31.062Z,100798.69
2024-03-04T18:02:00.761Z,100793.91
2024-03-04T18:04:29.974Z,100800.94
2024-03-04T18:06:58.841Z,100804.41
2024-03-04T18:09:27.641Z,100808.28
2024-03-04T18:11:56.525Z,100807.72
2024-03-04T18:14:25.384Z,100811.63
2024-03-04T18:16:54.528Z,100821.63
2024-03-04T18:19:23.706Z,100819.97
2024-03-04T18:21:52.722Z,100814.22
2024-03-04T18:24:21.572Z,100814.00
2024-03-04T18:26:50.617Z,100815.31
2024-03-04T18:29:19.459Z,100814.06
2024-03-04T18:31:49.228Z,100814.38
2024-03-04T18:34:19.069Z,100812.66
2024-03-04T18:36:51.195Z,100815.75
2024-03-04T18:39:20.145Z,100810.81
2024-03-04T19:11:15.716Z,100834.50
2024-03-04T19:13:45.733Z,100836.78
2024-03-04T19:16:17.916Z,100836.94
2024-03-04T19:18:47.141Z,100828.94
2024-03-04T19:21:21.296Z,100828.78
2024-03-04T19:23:50.228Z,100842.00
2024-03-04T19:26:20.875Z,100839.34
2024-03-04T19:28:54.283Z,100823.44
2024-03-04T19:31:24.908Z,100834.06
2024-03-04T19:33:54.957Z,100834.56
2024-03-04T19:36:25.199Z,100823.59
2024-03-04T19:38:54.949Z,100826.63
2024-03-04T19:41:33.345Z,100818.28
2024-03-04T19:44:06.835Z,100824.19
2024-03-04T19:46:36.865Z,100816.25
2024-03-04T19:49:06.535Z,100826.16
2024-03-04T19:51:38.233Z,100817.38
2024-03-04T19:54:07.793Z,100810.00
2024-03-04T19:56:37.564Z,100819.19
2024-03-04T19:59:07.572Z,100816.09
2024-03-04T20:01:37.437Z,100821.19
2024-03-04T20:04:07.600Z,100826.00
2024-03-04T20:06:37.403Z,100822.38
2024-03-04T20:09:07.371Z,100823.06
2024-03-04T20:11:37.190Z,100816.94
2024-03-04T20:14:07.227Z,100814.94
2024-03-04T20:16:37.570Z,100811.53
2024-03-04T20:19:07.832Z,100812.72
2024-03-04T20:21:38.890Z,100809.44
2024-03-04T20:24:08.817Z,100814.63
2024-03-04T20:26:38.526Z,100808.84
2024-03-04T20:29:08.513Z,100793.97
2024-03-04T20:31:39.101Z,100795.94
2024-03-04T20:34:09.306Z,100793.03
2024-03-04T20:36:40.549Z,100799.28
2024-03-04T20:39:10.213Z,100804.97
2024-03-04T20:44:47.653Z,100798.09
2024-03-04T20:47:16.681Z,100795.19
2024-03-04T20:49:45.478Z,100788.13
2024-03-04T20:52:15.048Z,100790.44
2024-03-04T20:54:43.973Z,100789.16
2024-03-04T20:57:12.820Z,100789.25
2024-03-04T20:59:41.677Z,100787.53
2024-03-04T21:02:10.987Z,100791.25
2024-03-04T21:04:39.951Z,100784.75
2024-03-04T21:07:11.518Z,100778.41
2024-03-04T21:09:40.449Z,100775.38
2024-03-04T21:12:10.844Z,100772.31
2024-03-04T21:14:41.031Z,100772.22
2024-03-04T21:17:09.902Z,100764.16
2024-03-04T21:19:42.233Z,100757.69
2024-03-04T21:22:11.660Z,100753.88
2024-03-04T21:24:42.747Z,100751.53
2024-03-04T21:27:17.833Z,100750.16
2024-03-04T21:29:46.940Z,100745.72
2024-03-04T21:32:15.862Z,100753.53
2024-03-04T21:34:44.887Z,100751.38
2024-03-04T21:37:21.102Z,100763.78
2024-03-04T21:39:53.569Z,100755.03
2024-03-04T21:42:23.626Z,100758.97
2024-03-04T21:44:52.531Z,100750.66
2024-03-04T21:47:21.320Z,100757.56
2024-03-04T21:49:50.218Z,100761.06
2024-03-04T21:52:22.024Z,100770.16
2024-03-04T21:54:52.846Z,100772.78
2024-03-04T21:57:23.463Z,100775.31
2024-03-04T21:59:52.353Z,100766.53
2024-03-04T22:02:21.294Z,100777.00
2024-03-04T22:04:50.156Z,100773.88
2024-03-04T22:07:19.138Z,100775.72
2024-03-04T22:09:48.733Z,100769.34
2024-03-04T22:12:19.022Z,100764.09
2024-03-04T22:14:47.933Z,100758.47
2024-03-04T22:17:17.217Z,100752.63
2024-03-04T22:19:47.018Z,100753.97
2024-03-04T22:22:15.935Z,100743.34
2024-03-04T22:24:47.138Z,100747.44
2024-03-04T22:27:17.646Z,100738.56
2024-03-04T22:29:46.591Z,100735.94
2024-03-04T22:32:15.756Z,100738.84
2024-03-04T22:34:45.002Z,100732.59
2024-03-04T22:37:15.440Z,100740.81
2024-03-04T22:39:46.786Z,100746.97
2024-03-04T22:42:15.904Z,100739.16
2024-03-04T22:44:45.588Z,100738.63
2024-03-04T22:47:14.836Z,100750.47
2024-03-04T22:49:44.203Z,100751.56
2024-03-04T22:52:23.041Z,100752.06
2024-03-04T22:54:52.119Z,100763.63
2024-03-04T22:57:21.111Z,100765.28
2024-03-04T22:59:53.294Z,100766.44
2024-03-04T23:02:22.256Z,100769.50
2024-03-04T23:05:28.144Z,100773.13
2024-03-04T23:08:08.904Z,100766.44
2024-03-04T23:11:11.280Z,100765.00
2024-03-04T23:13:47.229Z,100762.66
2024-03-04T23:16:17.180Z,100759.91
2024-03-04T23:22:36.810Z,100747.44
2024-03-04T23:25:10.688Z,100758.47
2024-03-04T23:27:41.920Z,100758.38
2024-03-04T23:30:32.729Z,100762.25
2024-03-04T23:36:01.880Z,100753.06
2024-03-04T23:38:32.147Z,100758.88
2024-03-04T23:54:01.485Z,100761.06
2024-03-04T23:56:30.593Z,100768.28
2024-03-04T23:58:59.510Z,100766.03
